Streamwood, Illinois
Current Conditions -  °F | °C
As of 2:52 PM on Friday 24 Oct 2014 (Local Time) from KDPA Reporting Station
Clear Clear  
Wind Chill: 68°   Ceiling: Unl
Heat Index: 68°   Visibility: 10mi
Dew Point: 47°   Wind: 12mph
Humidity: 47%   Direction: 240°WSW
Pressure: 29.97"   Gusts: NA
Location:  42.01°N, 88.17°W
Report Text: KDPA 241952Z 24010KT 10SM CLR 20/08 A2997 RMK AO2 SLP148 T02000083
Loading
Personal Weather Stations






























Interactive Weather Map
Tropical Storm Tracking
New forecast layout! Learn more

10-Day Weather Forecast

Advertisements
Track Severe Weather on mobile